createdAt,value
2022-08-19T00:01:30.758Z,15.09
2022-08-19T00:04:02.707Z,15.08
2022-08-19T00:06:31.003Z,15.02
2022-08-19T00:08:59.114Z,15.00
2022-08-19T00:11:28.707Z,14.98
2022-08-19T00:13:57.681Z,14.96
2022-08-19T00:16:26.335Z,14.96
2022-08-19T00:18:56.883Z,14.93
2022-08-19T00:21:25.991Z,14.94
2022-08-19T00:23:52.851Z,14.92
2022-08-19T00:26:19.956Z,14.91
2022-08-19T00:28:47.369Z,14.92
2022-08-19T00:31:14.152Z,14.91
2022-08-19T00:33:41.152Z,14.91
2022-08-19T00:36:10.654Z,14.89
2022-08-19T00:38:40.298Z,14.86
2022-08-19T00:41:07.557Z,14.83
2022-08-19T00:43:35.050Z,14.81
2022-08-19T00:46:05.855Z,14.79
2022-08-19T00:48:34.678Z,14.76
2022-08-19T00:51:02.652Z,14.73
2022-08-19T00:53:32.845Z,14.69
2022-08-19T00:56:02.271Z,14.66
2022-08-19T00:58:33.776Z,14.64
2022-08-19T01:01:01.727Z,14.62
2022-08-19T01:03:28.643Z,14.61
2022-08-19T01:05:56.755Z,14.59
2022-08-19T01:08:24.277Z,14.58
2022-08-19T01:10:55.415Z,14.59
2022-08-19T01:13:27.741Z,14.58
2022-08-19T01:16:05.545Z,14.57
2022-08-19T01:18:36.439Z,14.58
2022-08-19T01:21:10.413Z,14.58
2022-08-19T01:23:46.327Z,14.59
2022-08-19T01:26:16.655Z,14.61
2022-08-19T01:28:46.010Z,14.63
2022-08-19T01:31:26.813Z,14.63
2022-08-19T01:33:57.374Z,14.62
2022-08-19T01:36:29.029Z,14.60
2022-08-19T01:38:56.427Z,14.56
2022-08-19T01:41:24.572Z,14.50
2022-08-19T01:44:13.368Z,14.45
2022-08-19T01:46:40.525Z,14.43
2022-08-19T01:49:09.218Z,14.40
2022-08-19T01:51:39.614Z,14.45
2022-08-19T01:54:07.164Z,14.46
2022-08-19T01:56:33.890Z,14.47
2022-08-19T01:59:09.494Z,14.48
2022-08-19T02:01:36.395Z,14.49
2022-08-19T02:04:03.551Z,14.49
2022-08-19T02:06:30.439Z,14.49
2022-08-19T02:08:57.900Z,14.51
2022-08-19T02:11:27.618Z,14.53
2022-08-19T02:13:55.894Z,14.56
2022-08-19T02:16:23.142Z,14.57
2022-08-19T02:18:49.875Z,14.55
2022-08-19T02:21:21.786Z,14.51
2022-08-19T02:23:49.789Z,14.46
2022-08-19T02:26:17.171Z,14.43
2022-08-19T02:28:44.214Z,14.39
2022-08-19T02:31:16.052Z,14.34
2022-08-19T02:33:42.873Z,14.28
2022-08-19T02:36:11.735Z,14.23
2022-08-19T02:38:39.402Z,14.20
2022-08-19T02:41:12.528Z,14.15
2022-08-19T02:43:44.439Z,14.13
2022-08-19T02:46:33.261Z,14.08
2022-08-19T02:49:07.345Z,14.03
2022-08-19T02:51:40.571Z,13.99
2022-08-19T02:54:10.212Z,13.99
2022-08-19T02:56:38.940Z,13.95
2022-08-19T02:59:11.177Z,13.93
2022-08-19T03:01:41.801Z,13.91
2022-08-19T03:04:11.245Z,13.89
2022-08-19T03:06:40.356Z,13.88
2022-08-19T03:09:07.177Z,13.86
2022-08-19T03:11:34.980Z,13.85
2022-08-19T03:14:03.338Z,13.83
2022-08-19T03:16:33.540Z,13.82
2022-08-19T03:19:02.465Z,13.80
2022-08-19T03:21:32.293Z,13.81
2022-08-19T03:24:02.308Z,13.79
2022-08-19T03:26:30.301Z,13.77
2022-08-19T03:28:58.593Z,13.76
2022-08-19T03:31:41.912Z,13.75
2022-08-19T03:34:27.556Z,13.73
2022-08-19T03:36:59.605Z,13.72
2022-08-19T03:39:27.423Z,13.72
2022-08-19T03:42:29.307Z,13.73
2022-08-19T03:44:46.242Z,13.71
2022-08-19T03:47:17.337Z,13.68
2022-08-19T03:49:44.889Z,13.66
2022-08-19T03:52:11.950Z,13.64
2022-08-19T03:54:39.414Z,13.63
2022-08-19T03:57:07.239Z,13.65
2022-08-19T03:59:36.448Z,13.70
2022-08-19T04:02:08.844Z,13.72
2022-08-19T04:04:36.487Z,13.72
2022-08-19T04:07:03.480Z,13.71
2022-08-19T04:09:30.187Z,13.68
2022-08-19T04:11:58.760Z,13.66
2022-08-19T04:14:31.272Z,13.66
2022-08-19T04:16:58.495Z,13.63
2022-08-19T04:19:25.511Z,13.62
2022-08-19T04:21:55.262Z,13.61
2022-08-19T04:24:23.571Z,13.60
2022-08-19T04:26:51.249Z,13.59
2022-08-19T04:29:26.344Z,13.57
2022-08-19T04:31:55.298Z,13.56
2022-08-19T04:34:24.421Z,13.54
2022-08-19T04:36:53.299Z,13.53
2022-08-19T04:39:44.847Z,13.52
2022-08-19T04:42:31.124Z,13.52
2022-08-19T04:44:59.601Z,13.50
2022-08-19T04:47:47.024Z,13.49
2022-08-19T04:50:14.401Z,13.46
2022-08-19T04:52:44.576Z,13.44
2022-08-19T04:55:13.681Z,13.43
2022-08-19T04:57:41.463Z,13.43
2022-08-19T05:00:10.432Z,13.42
2022-08-19T05:02:37.578Z,13.41
2022-08-19T05:05:04.941Z,13.41
2022-08-19T05:07:31.914Z,13.37
2022-08-19T05:09:59.252Z,13.41
2022-08-19T05:12:28.895Z,13.42
2022-08-19T05:14:57.895Z,13.44
2022-08-19T05:17:27.945Z,13.43
2022-08-19T05:20:15.377Z,13.43
2022-08-19T05:22:44.705Z,13.42
2022-08-19T05:25:15.466Z,13.41
2022-08-19T05:27:43.127Z,13.43
2022-08-19T05:30:11.333Z,13.43
2022-08-19T05:32:38.711Z,13.43
2022-08-19T05:35:06.369Z,13.45
2022-08-19T05:37:33.086Z,13.47
2022-08-19T05:39:59.958Z,13.47
2022-08-19T05:42:27.601Z,13.47
2022-08-19T05:44:54.536Z,13.47
2022-08-19T05:47:22.340Z,13.47
2022-08-19T05:49:51.027Z,13.47
2022-08-19T05:52:18.956Z,13.47
2022-08-19T05:54:51.321Z,13.49
2022-08-19T05:57:20.341Z,13.50
2022-08-19T05:59:57.916Z,13.52
2022-08-19T06:02:29.762Z,13.54
2022-08-19T06:04:56.604Z,13.55
2022-08-19T06:07:23.590Z,13.56
2022-08-19T06:10:00.299Z,13.58
2022-08-19T06:12:29.893Z,13.60
2022-08-19T06:15:01.098Z,13.62
2022-08-19T06:17:31.614Z,13.64
2022-08-19T06:19:59.823Z,13.67
2022-08-19T06:22:27.627Z,13.70
2022-08-19T06:24:55.413Z,13.74
2022-08-19T06:27:22.980Z,13.75
2022-08-19T06:29:49.995Z,13.76
2022-08-19T06:32:18.923Z,13.78
2022-08-19T06:34:45.861Z,13.80
2022-08-19T06:37:12.858Z,13.80
2022-08-19T06:39:42.454Z,13.80
2022-08-19T06:42:12.888Z,13.80
2022-08-19T06:44:43.021Z,13.81
2022-08-19T06:47:23.416Z,13.81
2022-08-19T06:50:01.255Z,13.85
2022-08-19T06:52:36.448Z,13.85
2022-08-19T06:55:06.090Z,13.89
2022-08-19T06:57:33.764Z,13.94
2022-08-19T07:00:01.347Z,13.97
2022-08-19T07:02:28.105Z,14.01
2022-08-19T07:04:55.057Z,14.05
2022-08-19T07:07:23.419Z,14.09
2022-08-19T07:09:59.361Z,14.13
2022-08-19T07:12:31.135Z,14.18
2022-08-19T07:14:58.862Z,14.23
2022-08-19T07:17:26.244Z,14.39
2022-08-19T07:19:54.315Z,14.64
2022-08-19T07:22:24.254Z,14.81
2022-08-19T07:24:52.684Z,14.92
2022-08-19T07:27:24.210Z,14.93
2022-08-19T07:29:57.207Z,14.84
2022-08-19T07:32:28.043Z,14.75
2022-08-19T07:34:56.525Z,14.78
2022-08-19T07:37:28.322Z,14.83
2022-08-19T07:39:57.802Z,14.85
2022-08-19T07:42:24.644Z,14.83
2022-08-19T07:44:51.356Z,14.80
2022-08-19T07:47:50.390Z,14.78
2022-08-19T07:50:09.386Z,14.74
2022-08-19T07:52:40.152Z,14.69
2022-08-19T07:55:39.780Z,14.66
2022-08-19T07:57:56.393Z,14.66
2022-08-19T08:00:24.421Z,14.64
2022-08-19T08:02:52.173Z,14.68
2022-08-19T08:05:43.390Z,14.76
2022-08-19T08:08:29.940Z,14.84
2022-08-19T08:10:57.528Z,14.94
2022-08-19T08:13:25.406Z,15.01
2022-08-19T08:15:55.854Z,15.11
2022-08-19T08:18:28.057Z,15.24
2022-08-19T08:20:58.888Z,15.42
2022-08-19T08:23:27.051Z,15.57
2022-08-19T08:25:56.607Z,15.71
2022-08-19T08:28:29.750Z,15.82
2022-08-19T08:30:58.129Z,15.92
2022-08-19T08:33:34.721Z,15.99
2022-08-19T08:36:12.109Z,16.16
2022-08-19T08:38:40.880Z,16.18
2022-08-19T08:41:20.642Z,16.43
2022-08-19T08:43:52.316Z,16.57
2022-08-19T08:46:30.924Z,16.58
2022-08-19T08:49:23.803Z,16.63
2022-08-19T08:52:02.888Z,16.63
2022-08-19T08:54:36.764Z,16.68
2022-08-19T08:57:08.577Z,16.71
2022-08-19T08:59:40.394Z,16.67
2022-08-19T09:02:07.168Z,16.78
2022-08-19T09:04:36.506Z,16.63
2022-08-19T09:07:18.721Z,16.88
2022-08-19T09:10:44.326Z,17.07
2022-08-19T09:13:28.619Z,17.28
2022-08-19T09:16:07.629Z,17.37
2022-08-19T09:18:56.172Z,17.57
2022-08-19T09:21:30.279Z,17.74
2022-08-19T09:24:00.312Z,17.74
2022-08-19T09:26:35.213Z,17.90
2022-08-19T09:29:14.365Z,18.16
2022-08-19T09:31:41.365Z,18.08
2022-08-19T09:34:21.022Z,18.09
2022-08-19T09:36:50.674Z,18.33
2022-08-19T09:39:18.124Z,18.77
2022-08-19T09:41:47.620Z,19.06
2022-08-19T09:44:16.448Z,19.19
2022-08-19T09:46:44.895Z,19.47
2022-08-19T09:49:11.607Z,19.57
2022-08-19T09:51:40.571Z,19.75
2022-08-19T09:54:08.062Z,19.66
2022-08-19T09:56:38.233Z,19.25
2022-08-19T09:59:05.431Z,18.92
2022-08-19T10:01:33.546Z,18.56
2022-08-19T10:04:04.344Z,18.41
2022-08-19T10:06:46.554Z,18.25
2022-08-19T10:09:15.994Z,18.09
2022-08-19T10:11:54.556Z,18.10
2022-08-19T10:14:24.698Z,18.05
2022-08-19T10:16:52.895Z,17.95
2022-08-19T10:19:25.421Z,17.92
2022-08-19T10:21:54.345Z,17.99
2022-08-19T10:24:25.386Z,18.04
2022-08-19T10:26:55.832Z,18.03
2022-08-19T10:29:32.021Z,17.91
2022-08-19T10:32:09.749Z,17.76
2022-08-19T10:34:48.363Z,17.64
2022-08-19T10:37:23.550Z,17.56
2022-08-19T10:39:51.422Z,17.61
2022-08-19T10:42:19.605Z,17.60
2022-08-19T10:44:47.741Z,17.60
2022-08-19T10:47:17.660Z,17.72
2022-08-19T10:50:11.808Z,17.81
2022-08-19T10:52:49.233Z,17.78
2022-08-19T10:55:37.361Z,17.71
2022-08-19T10:58:04.576Z,17.71
2022-08-19T11:00:32.699Z,17.74
2022-08-19T11:02:59.607Z,17.76
2022-08-19T11:05:26.719Z,17.86
2022-08-19T11:07:53.848Z,17.92
2022-08-19T11:10:22.120Z,17.90
2022-08-19T11:12:49.547Z,18.11
2022-08-19T11:15:16.895Z,18.91
2022-08-19T11:17:45.014Z,19.53
2022-08-19T11:21:14.716Z,20.10
2022-08-19T11:23:42.017Z,20.42
2022-08-19T11:26:09.114Z,20.77
2022-08-19T11:28:36.870Z,21.05
2022-08-19T11:31:04.516Z,21.38
2022-08-19T11:33:31.955Z,21.69
2022-08-19T11:36:01.293Z,22.17
2022-08-19T11:38:28.230Z,22.73
2022-08-19T11:40:59.706Z,23.18
2022-08-19T11:43:28.078Z,23.59
2022-08-19T11:45:55.574Z,24.19
2022-08-19T11:48:23.778Z,24.42
2022-08-19T11:50:51.807Z,24.14
2022-08-19T11:53:21.128Z,23.30
2022-08-19T11:55:49.452Z,22.81
2022-08-19T11:58:19.135Z,22.57
2022-08-19T12:00:46.450Z,22.68
2022-08-19T12:03:14.961Z,22.45
2022-08-19T12:05:42.936Z,22.72
2022-08-19T12:08:09.991Z,23.06
2022-08-19T12:10:36.967Z,22.52
2022-08-19T12:13:04.187Z,22.72
2022-08-19T12:15:36.883Z,22.50
2022-08-19T12:18:04.984Z,23.57
2022-08-19T12:20:32.257Z,24.79
2022-08-19T12:23:03.744Z,26.22
2022-08-19T12:25:32.011Z,26.31
2022-08-19T12:27:59.524Z,25.63
2022-08-19T12:30:26.728Z,25.06
2022-08-19T12:32:54.071Z,24.20
2022-08-19T12:35:22.148Z,23.31
2022-08-19T12:37:56.803Z,22.53
2022-08-19T12:40:26.516Z,22.07
2022-08-19T12:42:54.114Z,21.83
2022-08-19T12:45:20.907Z,21.65
2022-08-19T12:47:49.623Z,21.60
2022-08-19T12:50:16.856Z,21.45
2022-08-19T12:52:43.754Z,21.27
2022-08-19T12:55:12.203Z,20.87
2022-08-19T12:57:39.351Z,20.57
2022-08-19T13:00:14.853Z,20.44
2022-08-19T13:02:45.212Z,20.54
2022-08-19T13:05:17.791Z,20.58
2022-08-19T13:07:47.418Z,20.79
2022-08-19T13:10:18.221Z,20.90
2022-08-19T13:12:48.144Z,20.97
2022-08-19T13:15:21.727Z,21.02
2022-08-19T13:17:52.890Z,21.28
2022-08-19T13:20:21.203Z,22.01
2022-08-19T13:22:49.565Z,22.09
2022-08-19T13:25:18.642Z,21.70
2022-08-19T13:27:46.412Z,21.42
2022-08-19T13:30:33.882Z,21.51
2022-08-19T13:33:13.080Z,23.26
2022-08-19T13:35:50.269Z,24.25
2022-08-19T13:38:21.622Z,25.82
2022-08-19T13:40:51.352Z,25.40
2022-08-19T13:43:23.276Z,24.57
2022-08-19T13:45:55.048Z,24.30
2022-08-19T13:48:22.429Z,24.07
2022-08-19T13:50:49.476Z,24.13
2022-08-19T13:53:17.683Z,23.89
2022-08-19T13:55:44.838Z,23.18
2022-08-19T13:58:13.012Z,22.81
2022-08-19T14:00:42.863Z,22.38
2022-08-19T14:03:10.408Z,22.07
2022-08-19T14:05:38.003Z,22.44
2022-08-19T14:08:05.450Z,22.17
2022-08-19T14:10:33.007Z,22.11
2022-08-19T14:13:02.864Z,23.33
2022-08-19T14:15:30.534Z,24.11
2022-08-19T14:17:57.781Z,23.99
2022-08-19T14:20:25.950Z,24.27
2022-08-19T14:22:54.250Z,24.90
2022-08-19T14:25:25.101Z,24.25
2022-08-19T14:27:52.758Z,23.75
2022-08-19T14:30:23.757Z,23.66
2022-08-19T14:32:50.490Z,23.33
2022-08-19T14:35:17.401Z,23.23
2022-08-19T14:37:46.380Z,22.82
2022-08-19T14:40:21.680Z,22.30
2022-08-19T14:42:49.664Z,21.85
2022-08-19T14:45:16.366Z,21.57
2022-08-19T14:47:43.147Z,21.44
2022-08-19T14:50:18.390Z,21.44
2022-08-19T14:52:48.822Z,21.33
2022-08-19T14:55:18.608Z,21.29
2022-08-19T14:57:45.839Z,21.31
2022-08-19T15:00:15.032Z,21.47
2022-08-19T15:02:43.018Z,21.57
2022-08-19T15:05:10.032Z,23.92
2022-08-19T15:07:37.824Z,26.81
2022-08-19T15:10:08.017Z,27.36
2022-08-19T15:12:41.233Z,26.57
2022-08-19T15:15:13.942Z,28.77
2022-08-19T15:17:54.966Z,30.97
2022-08-19T15:20:25.531Z,33.41
2022-08-19T15:22:52.256Z,31.54
2022-08-19T15:25:20.223Z,29.38
2022-08-19T15:27:48.123Z,27.48
2022-08-19T15:30:21.987Z,26.53
2022-08-19T15:32:49.244Z,26.13
2022-08-19T15:35:18.333Z,25.54
2022-08-19T15:37:46.142Z,25.67
2022-08-19T15:40:13.254Z,28.90
2022-08-19T15:42:42.574Z,28.85
2022-08-19T15:45:11.770Z,31.08
2022-08-19T15:47:39.471Z,29.85
2022-08-19T15:50:12.679Z,28.87
2022-08-19T15:52:53.438Z,27.97
2022-08-19T15:55:34.662Z,27.31
2022-08-19T15:58:29.138Z,25.74
2022-08-19T16:01:26.936Z,28.09
2022-08-19T16:04:15.777Z,29.70
2022-08-19T16:06:55.664Z,31.15
2022-08-19T16:09:27.745Z,34.17
2022-08-19T16:12:01.746Z,34.27
2022-08-19T16:14:30.544Z,32.02
2022-08-19T16:16:57.337Z,32.45
2022-08-19T16:19:25.208Z,30.92
2022-08-19T16:21:54.597Z,31.78
2022-08-19T16:24:23.676Z,34.22
2022-08-19T16:26:51.134Z,34.62
2022-08-19T16:29:33.282Z,34.88
2022-08-19T16:32:02.805Z,35.93
2022-08-19T16:34:30.400Z,37.03
2022-08-19T16:36:57.246Z,36.04
2022-08-19T16:39:24.450Z,35.80
2022-08-19T16:41:51.945Z,34.64
2022-08-19T16:44:20.980Z,34.36
2022-08-19T16:46:55.739Z,30.30
2022-08-19T16:49:54.539Z,30.96
2022-08-19T16:52:14.824Z,29.62
2022-08-19T16:54:43.624Z,27.38
2022-08-19T16:57:12.106Z,25.94
2022-08-19T16:59:49.031Z,26.53
2022-08-19T17:02:22.854Z,26.09
2022-08-19T17:04:57.496Z,26.27
2022-08-19T17:07:27.111Z,25.28
2022-08-19T17:09:53.879Z,27.86
2022-08-19T17:12:30.468Z,26.80
2022-08-19T17:15:01.059Z,28.79
2022-08-19T17:17:29.307Z,28.96
2022-08-19T17:19:56.747Z,29.17
2022-08-19T17:22:24.036Z,27.60
2022-08-19T17:24:50.731Z,26.94
2022-08-19T17:27:19.852Z,25.59
2022-08-19T17:29:47.263Z,24.58
2022-08-19T17:32:15.399Z,25.36
2022-08-19T17:34:42.136Z,24.56
2022-08-19T17:37:09.243Z,24.38
2022-08-19T17:39:39.566Z,23.85
2022-08-19T17:42:08.192Z,23.30
2022-08-19T17:44:36.853Z,22.66
2022-08-19T17:47:04.644Z,22.14
2022-08-19T17:49:32.655Z,21.89
2022-08-19T17:52:02.608Z,21.75
2022-08-19T17:54:33.682Z,21.61
2022-08-19T17:57:01.653Z,21.34
2022-08-19T17:59:30.068Z,21.08
2022-08-19T18:01:57.198Z,20.88
2022-08-19T18:04:25.924Z,20.78
2022-08-19T18:06:54.936Z,20.75
2022-08-19T18:09:41.716Z,20.70
2022-08-19T18:12:11.822Z,20.63
2022-08-19T18:14:39.564Z,20.52
2022-08-19T18:17:12.037Z,20.36
2022-08-19T18:19:41.512Z,20.10
2022-08-19T18:22:10.515Z,20.03
2022-08-19T18:24:42.190Z,20.02
2022-08-19T18:27:10.224Z,19.98
2022-08-19T18:29:38.650Z,19.88
2022-08-19T18:32:12.668Z,19.82
2022-08-19T18:34:41.057Z,19.70
2022-08-19T18:37:07.738Z,19.56
2022-08-19T18:39:53.343Z,19.43
2022-08-19T18:42:38.923Z,19.42
2022-08-19T18:45:25.251Z,19.40
2022-08-19T18:48:26.904Z,19.33
2022-08-19T18:50:59.815Z,19.29
2022-08-19T18:53:28.991Z,19.25
2022-08-19T18:55:56.520Z,19.22
2022-08-19T18:58:32.526Z,19.21
2022-08-19T19:01:01.955Z,19.30
2022-08-19T19:03:29.063Z,19.34
2022-08-19T19:05:55.931Z,19.32
2022-08-19T19:08:27.006Z,19.22
2022-08-19T19:10:54.903Z,19.11
2022-08-19T19:13:21.891Z,18.92
2022-08-19T19:15:48.610Z,18.78
2022-08-19T19:18:15.324Z,18.62
2022-08-19T19:20:42.825Z,18.46
2022-08-19T19:23:09.713Z,18.33
2022-08-19T19:25:49.980Z,18.24
2022-08-19T19:28:18.845Z,18.20
2022-08-19T19:30:45.576Z,18.17
2022-08-19T19:33:12.243Z,18.09
2022-08-19T19:35:41.173Z,18.01
2022-08-19T19:38:14.116Z,17.96
2022-08-19T19:40:43.372Z,17.89
2022-08-19T19:43:10.095Z,17.86
2022-08-19T19:45:38.348Z,17.82
2022-08-19T19:48:05.936Z,17.77
2022-08-19T19:50:32.726Z,17.74
2022-08-19T19:52:59.637Z,17.73
2022-08-19T19:55:27.291Z,17.73
2022-08-19T19:57:54.491Z,17.73
2022-08-19T20:00:21.871Z,17.69
2022-08-19T20:02:50.858Z,17.66
2022-08-19T20:05:20.915Z,17.63
2022-08-19T20:08:27.460Z,17.59
2022-08-19T20:10:54.126Z,17.50
2022-08-19T20:13:21.787Z,17.46
2022-08-19T20:15:48.562Z,17.43
2022-08-19T20:18:15.718Z,17.39
2022-08-19T20:20:43.799Z,17.36
2022-08-19T20:23:11.025Z,17.33
2022-08-19T20:25:38.648Z,17.28
2022-08-19T20:28:05.806Z,17.24
2022-08-19T20:30:33.479Z,17.18
2022-08-19T20:33:00.799Z,17.15
2022-08-19T20:35:27.877Z,17.12
2022-08-19T20:37:58.225Z,17.07
2022-08-19T20:40:26.091Z,17.03
2022-08-19T20:42:52.803Z,17.02
2022-08-19T20:45:33.110Z,16.99
2022-08-19T20:48:03.411Z,16.97
2022-08-19T20:50:32.352Z,16.95
2022-08-19T20:52:59.529Z,16.95
2022-08-19T20:55:28.257Z,16.92
2022-08-19T20:57:55.508Z,16.91
2022-08-19T21:00:22.441Z,16.88
2022-08-19T21:02:49.235Z,16.85
2022-08-19T21:05:18.662Z,16.80
2022-08-19T21:07:45.380Z,16.77
2022-08-19T21:10:12.459Z,16.75
2022-08-19T21:12:39.561Z,16.74
2022-08-19T21:15:07.341Z,16.71
2022-08-19T21:17:34.300Z,16.70
2022-08-19T21:20:39.334Z,16.69
2022-08-19T21:27:50.051Z,16.65
2022-08-19T21:31:16.562Z,16.57
2022-08-19T21:38:34.348Z,16.51
2022-08-19T21:42:01.354Z,16.51
2022-08-19T21:45:28.130Z,16.50
2022-08-19T21:48:54.590Z,16.48
2022-08-19T21:55:54.046Z,16.39
2022-08-19T21:59:20.633Z,16.36
2022-08-19T22:01:50.596Z,16.34
2022-08-19T22:04:23.689Z,16.32
2022-08-19T22:06:53.299Z,16.28
2022-08-19T22:09:20.019Z,16.28
2022-08-19T22:11:46.859Z,16.25
2022-08-19T22:14:13.909Z,16.22
2022-08-19T22:16:40.795Z,16.20
2022-08-19T22:19:08.128Z,16.19
2022-08-19T22:21:40.262Z,16.15
2022-08-19T22:24:08.318Z,16.13
2022-08-19T22:26:35.064Z,16.11
2022-08-19T22:29:02.060Z,16.07
2022-08-19T22:31:28.819Z,16.06
2022-08-19T22:33:56.104Z,16.03
2022-08-19T22:36:22.778Z,16.00
2022-08-19T22:38:49.443Z,15.98
2022-08-19T22:41:16.436Z,15.97
2022-08-19T22:43:43.759Z,15.95
2022-08-19T22:46:15.080Z,15.93
2022-08-19T22:48:44.988Z,15.91
2022-08-19T22:51:46.938Z,15.89
2022-08-19T22:54:14.135Z,15.88
2022-08-19T22:56:40.820Z,15.87
2022-08-19T22:59:08.662Z,15.85
2022-08-19T23:01:39.610Z,15.83
2022-08-19T23:04:06.258Z,15.82
2022-08-19T23:06:35.039Z,15.83
2022-08-19T23:09:07.242Z,15.81
2022-08-19T23:11:38.095Z,15.84
2022-08-19T23:14:09.957Z,15.86
2022-08-19T23:16:36.605Z,15.85
2022-08-19T23:19:03.714Z,15.83
2022-08-19T23:21:31.177Z,15.80
2022-08-19T23:23:58.075Z,15.80
2022-08-19T23:26:24.785Z,15.78
2022-08-19T23:29:10.266Z,15.77
2022-08-19T23:31:36.959Z,15.71
2022-08-19T23:34:04.013Z,15.70
2022-08-19T23:36:31.165Z,15.70
2022-08-19T23:38:59.598Z,15.71
2022-08-19T23:41:27.939Z,15.79
2022-08-19T23:43:55.106Z,15.82
2022-08-19T23:46:27.463Z,15.87
2022-08-19T23:48:55.826Z,15.93
2022-08-19T23:51:22.915Z,15.97
2022-08-19T23:53:49.801Z,15.98
2022-08-19T23:56:16.955Z,15.98
2022-08-19T23:58:43.681Z,15.99
